Time;durP1;ratioP1;P1;durP2;ratioP2;P2;SDS_P1;SDS_P2;PMS_P1;PMS_P2;Temp;Humidity;BMP_temperature;BMP_pressure;BME280_temperature;BME280_humidity;BME280_pressure;Samples;Min_cycle;Max_cycle;Signal;HPM_P1;HPM_P2
2020/12/31 00:01:56;;;;;;;6.57;4.88;;;6.40;82.80;;;;;;5046497;28;20099;-74
2020/12/31 00:04:23;;;;;;;6.57;4.80;;;6.40;82.80;;;;;;5031665;28;20052;-76
2020/12/31 00:06:49;;;;;;;7.07;4.97;;;6.40;82.70;;;;;;5015108;28;20037;-76
2020/12/31 00:09:15;;;;;;;5.72;4.30;;;6.40;82.70;;;;;;5046231;28;20031;-76
2020/12/31 00:11:40;;;;;;;6.65;4.90;;;6.40;82.80;;;;;;5027198;28;20135;-76
2020/12/31 00:14:07;;;;;;;6.00;4.55;;;6.40;82.80;;;;;;5025768;28;20748;-76
2020/12/31 00:16:36;;;;;;;5.82;4.22;;;6.40;82.80;;;;;;5034972;28;20533;-76
2020/12/31 00:19:03;;;;;;;6.88;4.85;;;6.40;82.80;;;;;;5030816;28;20416;-75
2020/12/31 00:21:29;;;;;;;6.88;4.60;;;6.40;82.80;;;;;;5031799;28;21331;-75
2020/12/31 00:23:54;;;;;;;6.18;4.68;;;6.40;82.80;;;;;;5043390;28;20025;-76
2020/12/31 00:26:20;;;;;;;6.30;4.70;;;6.40;82.80;;;;;;5032063;28;20466;-75
2020/12/31 00:28:46;;;;;;;5.95;4.38;;;6.40;82.80;;;;;;5031120;28;20044;-76
2020/12/31 00:31:12;;;;;;;6.45;4.30;;;6.40;82.80;;;;;;5039996;28;20475;-75
2020/12/31 00:33:38;;;;;;;6.45;4.20;;;6.40;82.80;;;;;;5029692;28;20708;-75
2020/12/31 00:36:03;;;;;;;5.40;3.80;;;6.40;82.80;;;;;;5041879;28;20465;-76
2020/12/31 00:38:29;;;;;;;5.88;4.15;;;6.40;82.80;;;;;;5022932;28;20033;-76
2020/12/31 00:40:56;;;;;;;5.65;3.90;;;6.40;82.80;;;;;;5050746;28;20069;-75
2020/12/31 00:43:22;;;;;;;6.22;4.10;;;6.40;82.80;;;;;;5032822;28;20128;-75
2020/12/31 00:45:48;;;;;;;6.45;4.25;;;6.40;83.20;;;;;;5035113;28;20164;-75
2020/12/31 00:48:14;;;;;;;5.90;4.22;;;6.40;82.80;;;;;;5031899;28;20033;-74
2020/12/31 00:50:40;;;;;;;5.75;4.10;;;6.40;82.80;;;;;;5046594;28;20029;-75
2020/12/31 00:53:06;;;;;;;5.65;3.90;;;6.40;82.80;;;;;;5025168;28;20025;-75
2020/12/31 00:55:34;;;;;;;5.95;4.25;;;6.40;82.80;;;;;;5035534;28;20036;-75
2020/12/31 00:58:00;;;;;;;5.68;3.90;;;6.40;82.80;;;;;;5043060;28;20033;-75
2020/12/31 01:00:26;;;;;;;5.85;3.95;;;6.40;82.80;;;;;;5033137;28;20129;-75
2020/12/31 01:03:04;;;;;;;5.18;3.50;;;6.40;82.80;;;;;;5049210;28;20064;-75
2020/12/31 01:05:30;;;;;;;5.72;3.50;;;6.40;82.80;;;;;;5046940;28;20022;-78
2020/12/31 01:07:56;;;;;;;5.28;3.92;;;6.40;82.80;;;;;;5017494;28;20029;-75
2020/12/31 01:10:21;;;;;;;4.50;3.50;;;6.40;82.80;;;;;;5046818;28;20158;-76
2020/12/31 01:12:47;;;;;;;5.00;3.20;;;6.40;82.80;;;;;;5023797;28;20500;-75
2020/12/31 01:15:13;;;;;;;5.28;3.40;;;6.40;82.80;;;;;;5048974;28;20092;-74
2020/12/31 01:17:39;;;;;;;4.97;3.53;;;6.40;82.80;;;;;;5037511;28;20496;-76
2020/12/31 01:20:05;;;;;;;4.57;3.45;;;6.40;82.80;;;;;;5030018;28;20034;-75
2020/12/31 01:22:31;;;;;;;4.40;3.20;;;6.40;82.80;;;;;;5034366;28;20104;-78
2020/12/31 01:24:56;;;;;;;6.43;3.70;;;6.40;82.80;;;;;;5034420;28;20124;-77
2020/12/31 01:27:22;;;;;;;4.82;3.38;;;6.40;82.80;;;;;;5051059;28;20025;-75
2020/12/31 01:29:48;;;;;;;4.53;3.35;;;6.40;82.80;;;;;;5047779;28;20049;-75
2020/12/31 01:32:13;;;;;;;4.72;3.63;;;6.40;82.80;;;;;;5038559;28;20037;-76
2020/12/31 01:34:39;;;;;;;5.40;3.53;;;6.40;82.80;;;;;;5046827;28;20037;-75
2020/12/31 01:37:05;;;;;;;4.68;3.03;;;6.40;82.90;;;;;;5033604;28;20060;-75
2020/12/31 01:39:31;;;;;;;4.35;3.25;;;6.40;82.80;;;;;;5048847;28;20040;-75
2020/12/31 01:42:06;;;;;;;5.80;3.42;;;6.40;82.80;;;;;;5051421;28;20033;-76
2020/12/31 01:44:32;;;;;;;4.75;3.20;;;6.40;82.90;;;;;;5031025;28;20152;-75
2020/12/31 01:47:01;;;;;;;5.03;3.08;;;6.40;82.80;;;;;;5024300;28;20068;-75
2020/12/31 01:49:31;;;;;;;3.88;3.00;;;6.40;82.80;;;;;;5033366;28;20029;-75
2020/12/31 01:51:58;;;;;;;4.35;3.20;;;6.40;82.90;;;;;;5042566;28;20470;-74
2020/12/31 01:54:25;;;;;;;3.95;2.80;;;6.40;82.80;;;;;;5027776;28;20030;-75
2020/12/31 01:56:53;;;;;;;4.65;2.92;;;6.40;82.90;;;;;;5041127;28;20056;-76
2020/12/31 01:59:19;;;;;;;4.68;2.85;;;6.40;82.90;;;;;;5039720;28;20175;-76
2020/12/31 02:01:47;;;;;;;5.18;3.45;;;6.40;82.80;;;;;;5045035;28;20132;-76
2020/12/31 02:04:13;;;;;;;4.68;3.13;;;6.40;82.80;;;;;;5035301;28;20030;-75
2020/12/31 02:06:39;;;;;;;4.75;3.17;;;6.40;82.80;;;;;;5041353;28;20034;-75
2020/12/31 02:09:05;;;;;;;4.00;2.83;;;6.40;82.80;;;;;;5015880;28;20557;-74
2020/12/31 02:11:31;;;;;;;4.70;3.30;;;6.40;82.90;;;;;;5032142;28;20116;-75
2020/12/31 02:13:57;;;;;;;4.38;3.15;;;6.40;82.80;;;;;;5021972;28;20033;-76
2020/12/31 02:16:29;;;;;;;3.92;2.90;;;6.40;82.90;;;;;;5042368;28;20040;-74
2020/12/31 02:18:57;;;;;;;4.28;2.72;;;6.40;82.90;;;;;;5037503;28;20053;-74
2020/12/31 02:21:28;;;;;;;4.18;3.20;;;6.40;82.80;;;;;;5046851;28;20041;-75
2020/12/31 02:23:55;;;;;;;4.40;3.42;;;6.40;82.90;;;;;;5024175;28;20036;-75
2020/12/31 02:26:23;;;;;;;4.05;3.05;;;6.40;82.90;;;;;;5032745;28;20036;-74
2020/12/31 02:28:49;;;;;;;4.30;3.17;;;6.40;82.90;;;;;;5034977;28;20031;-75
2020/12/31 02:31:15;;;;;;;5.43;3.55;;;6.40;82.90;;;;;;5043780;28;20060;-74
2020/12/31 02:33:49;;;;;;;4.97;3.53;;;6.40;82.90;;;;;;5040453;28;20033;-74
2020/12/31 02:36:19;;;;;;;4.70;3.53;;;6.40;82.90;;;;;;5033949;28;20116;-75
2020/12/31 02:38:45;;;;;;;4.75;3.33;;;6.40;82.90;;;;;;5000141;28;20021;-75
2020/12/31 02:41:12;;;;;;;5.10;3.25;;;6.40;82.90;;;;;;5024953;28;20044;-75
2020/12/31 02:43:39;;;;;;;4.65;3.28;;;6.40;82.90;;;;;;5045303;28;20362;-78
2020/12/31 02:46:07;;;;;;;4.40;3.38;;;6.40;83.50;;;;;;5012261;28;604226;-75
2020/12/31 02:48:33;;;;;;;4.38;3.15;;;6.40;82.90;;;;;;5044058;28;20095;-75
2020/12/31 02:50:59;;;;;;;5.47;3.30;;;6.40;82.90;;;;;;5029076;28;20432;-75
2020/12/31 02:53:25;;;;;;;4.55;3.33;;;6.40;82.90;;;;;;5033288;28;20080;-75
2020/12/31 02:55:51;;;;;;;5.35;3.85;;;6.40;82.90;;;;;;5028520;28;20029;-75
2020/12/31 02:58:17;;;;;;;5.57;3.85;;;6.40;82.90;;;;;;5029334;28;20049;-75
2020/12/31 03:00:43;;;;;;;4.60;3.40;;;6.30;82.90;;;;;;5044856;28;20037;-74
2020/12/31 03:03:09;;;;;;;5.57;3.47;;;6.40;82.90;;;;;;5043860;28;20124;-75
2020/12/31 03:05:35;;;;;;;5.00;3.50;;;6.30;82.90;;;;;;5043136;28;20025;-75
2020/12/31 03:08:01;;;;;;;4.43;3.30;;;6.40;82.90;;;;;;5035169;28;20037;-75
2020/12/31 03:10:27;;;;;;;4.65;3.47;;;6.40;82.90;;;;;;5046925;28;20710;-76
2020/12/31 03:12:53;;;;;;;4.72;3.47;;;6.30;82.90;;;;;;5032289;28;20028;-77
2020/12/31 03:15:20;;;;;;;4.78;3.40;;;6.40;82.90;;;;;;5025316;28;20026;-76
2020/12/31 03:17:46;;;;;;;4.45;3.38;;;6.40;82.90;;;;;;5022122;28;20064;-74
2020/12/31 03:20:12;;;;;;;5.30;3.53;;;6.40;82.90;;;;;;5038433;28;20096;-75
2020/12/31 03:22:37;;;;;;;4.57;3.45;;;6.40;82.90;;;;;;5035670;28;20096;-75
2020/12/31 03:25:04;;;;;;;4.90;3.47;;;6.30;82.80;;;;;;5016913;28;20084;-76
2020/12/31 03:27:30;;;;;;;5.38;3.90;;;6.30;82.90;;;;;;5041467;28;20033;-76
2020/12/31 03:29:56;;;;;;;4.38;3.20;;;6.30;82.80;;;;;;5039619;28;20036;-75
2020/12/31 03:32:22;;;;;;;5.07;3.40;;;6.30;82.90;;;;;;5031438;28;20079;-74
2020/12/31 03:34:48;;;;;;;4.85;3.63;;;6.40;82.90;;;;;;5036536;28;20041;-75
2020/12/31 03:37:14;;;;;;;4.97;3.38;;;6.30;82.90;;;;;;5036590;28;20026;-75
2020/12/31 03:39:41;;;;;;;4.32;3.42;;;6.30;82.90;;;;;;5031391;28;20032;-75
2020/12/31 03:42:07;;;;;;;4.38;3.20;;;6.30;82.90;;;;;;5037774;28;20038;-74
2020/12/31 03:44:33;;;;;;;4.53;3.63;;;6.40;82.90;;;;;;5031997;28;20096;-75
2020/12/31 03:46:59;;;;;;;4.72;3.58;;;6.30;82.90;;;;;;5029569;28;20029;-76
2020/12/31 03:49:25;;;;;;;4.53;3.40;;;6.30;82.90;;;;;;5031998;28;20059;-74
2020/12/31 03:51:51;;;;;;;4.85;3.30;;;6.40;82.90;;;;;;5031262;28;20025;-75
2020/12/31 03:54:17;;;;;;;4.35;3.20;;;6.30;82.90;;;;;;5047190;28;20044;-75
2020/12/31 03:56:42;;;;;;;4.70;3.58;;;6.30;82.90;;;;;;5049712;28;20043;-75
2020/12/31 03:59:08;;;;;;;4.80;3.00;;;6.30;82.90;;;;;;5012087;28;20657;-75
2020/12/31 04:01:34;;;;;;;4.25;3.13;;;6.30;82.90;;;;;;5038444;28;20032;-74
2020/12/31 04:04:01;;;;;;;4.57;3.30;;;6.40;83.00;;;;;;5023652;28;20068;-75
2020/12/31 04:06:28;;;;;;;4.05;3.28;;;6.30;82.90;;;;;;5042646;28;20026;-75
2020/12/31 04:08:53;;;;;;;3.90;3.03;;;6.40;83.00;;;;;;5047137;28;20029;-75
2020/12/31 04:11:20;;;;;;;4.53;3.47;;;6.30;82.90;;;;;;5038647;28;20039;-75
2020/12/31 04:13:46;;;;;;;4.72;3.38;;;6.30;82.90;;;;;;5031237;28;20108;-78
2020/12/31 04:16:11;;;;;;;4.03;3.10;;;6.30;82.90;;;;;;5034899;28;20049;-75
2020/12/31 04:18:38;;;;;;;4.40;3.33;;;6.30;82.90;;;;;;5027944;28;20041;-75
2020/12/31 04:21:04;;;;;;;4.63;3.60;;;6.30;82.90;;;;;;5035599;28;20095;-75
2020/12/31 04:23:29;;;;;;;4.15;3.03;;;6.30;82.90;;;;;;5036664;28;20120;-75
2020/12/31 04:25:55;;;;;;;4.45;3.13;;;6.30;82.90;;;;;;5005472;28;20124;-75
2020/12/31 04:28:21;;;;;;;4.95;3.40;;;6.30;82.90;;;;;;5027153;28;20385;-75
2020/12/31 04:30:48;;;;;;;3.50;2.65;;;6.30;82.90;;;;;;5035367;28;20030;-77
2020/12/31 04:33:14;;;;;;;4.60;3.00;;;6.30;82.90;;;;;;5021726;28;20025;-74
2020/12/31 04:35:40;;;;;;;4.28;3.30;;;6.30;82.90;;;;;;5030281;28;20072;-75
2020/12/31 04:38:06;;;;;;;3.53;2.92;;;6.30;82.90;;;;;;5043300;28;20493;-74
2020/12/31 04:40:32;;;;;;;3.85;3.00;;;6.30;82.90;;;;;;5042870;28;20397;-76
2020/12/31 04:42:59;;;;;;;3.90;3.20;;;6.30;82.90;;;;;;5038413;28;20040;-75
2020/12/31 04:45:26;;;;;;;4.50;3.42;;;6.30;82.90;;;;;;5046219;28;20045;-75
2020/12/31 04:48:08;;;;;;;3.47;2.67;;;6.30;83.00;;;;;;5032246;28;20036;-77
2020/12/31 04:50:38;;;;;;;4.45;3.30;;;6.30;83.00;;;;;;5040039;28;20029;-75
2020/12/31 04:53:09;;;;;;;3.65;2.92;;;6.30;82.90;;;;;;5045941;28;20075;-74
2020/12/31 04:55:45;;;;;;;4.22;2.97;;;6.30;82.90;;;;;;5039439;28;20033;-75
2020/12/31 04:58:15;;;;;;;4.15;3.05;;;6.30;83.00;;;;;;5037858;28;20049;-76
2020/12/31 05:00:43;;;;;;;3.97;2.88;;;6.30;82.90;;;;;;5036067;28;20524;-75
2020/12/31 05:03:09;;;;;;;4.18;3.03;;;6.30;82.90;;;;;;5048065;28;20116;-75
2020/12/31 05:05:37;;;;;;;4.03;2.97;;;6.30;82.90;;;;;;5026122;28;20033;-75
2020/12/31 05:08:04;;;;;;;4.35;2.88;;;6.30;83.00;;;;;;5017264;28;20057;-75
2020/12/31 05:10:30;;;;;;;3.90;3.13;;;6.30;83.00;;;;;;5044761;28;20042;-75
2020/12/31 05:13:04;;;;;;;3.25;2.65;;;6.30;82.90;;;;;;5042875;28;20029;-75
2020/12/31 05:15:34;;;;;;;3.30;2.70;;;6.30;83.00;;;;;;5034844;28;20033;-75
2020/12/31 05:18:23;;;;;;;3.80;3.00;;;6.30;82.90;;;;;;5040422;28;20025;-74
2020/12/31 05:20:56;;;;;;;4.32;2.88;;;6.30;83.00;;;;;;5044946;28;20049;-75
2020/12/31 05:23:24;;;;;;;3.72;2.72;;;6.30;82.90;;;;;;5031206;28;20453;-75
2020/12/31 05:25:50;;;;;;;3.92;2.85;;;6.30;82.90;;;;;;5044837;28;20021;-75
2020/12/31 05:28:32;;;;;;;3.70;2.85;;;6.30;82.90;;;;;;5032901;28;20041;-75
2020/12/31 05:31:11;;;;;;;3.60;2.85;;;6.30;83.00;;;;;;5032820;28;20063;-75
2020/12/31 05:33:39;;;;;;;3.78;2.80;;;6.30;83.00;;;;;;5036612;28;20033;-75
2020/12/31 05:36:19;;;;;;;4.13;3.22;;;6.30;82.90;;;;;;5039453;28;20025;-75
2020/12/31 05:39:02;;;;;;;3.75;2.75;;;6.30;83.00;;;;;;5048773;28;20112;-75
2020/12/31 05:41:29;;;;;;;3.75;2.72;;;6.30;83.10;;;;;;5045903;28;20120;-75
2020/12/31 05:43:57;;;;;;;4.40;3.20;;;6.30;82.90;;;;;;5033466;28;20075;-76
2020/12/31 05:46:24;;;;;;;4.70;3.00;;;6.30;83.00;;;;;;5031288;28;20026;-76
2020/12/31 05:48:58;;;;;;;3.80;2.50;;;6.30;83.00;;;;;;5038291;28;20072;-75
2020/12/31 05:51:31;;;;;;;4.05;2.80;;;6.30;83.00;;;;;;5034529;28;20115;-74
2020/12/31 05:54:13;;;;;;;3.20;2.58;;;6.30;83.00;;;;;;5032924;28;20033;-76
2020/12/31 05:56:43;;;;;;;3.92;2.72;;;6.30;83.00;;;;;;5048286;28;20021;-74
2020/12/31 05:59:23;;;;;;;3.47;2.75;;;6.30;83.00;;;;;;5036823;28;20059;-75
2020/12/31 06:02:03;;;;;;;3.67;2.58;;;6.30;83.10;;;;;;5029542;28;20533;-75
2020/12/31 06:04:45;;;;;;;3.40;2.72;;;6.30;83.00;;;;;;5030702;28;20038;-75
2020/12/31 06:07:32;;;;;;;3.88;2.60;;;6.30;83.00;;;;;;5042793;28;20079;-74
2020/12/31 06:10:09;;;;;;;3.85;2.72;;;6.30;83.00;;;;;;5038981;28;20040;-75
2020/12/31 06:12:48;;;;;;;3.30;2.72;;;6.30;83.00;;;;;;5047539;28;20061;-75
2020/12/31 06:15:25;;;;;;;3.65;2.78;;;6.30;83.00;;;;;;5034187;28;20021;-74
2020/12/31 06:17:52;;;;;;;3.20;2.53;;;6.30;82.90;;;;;;5045737;28;20118;-75
2020/12/31 06:20:19;;;;;;;3.78;2.63;;;6.30;82.90;;;;;;5043928;28;20402;-74
2020/12/31 06:23:09;;;;;;;3.38;2.58;;;6.30;83.00;;;;;;5033897;28;20032;-75
2020/12/31 06:25:45;;;;;;;2.83;2.33;;;6.30;83.10;;;;;;5034661;28;20119;-75
2020/12/31 06:28:13;;;;;;;2.97;2.47;;;6.30;83.00;;;;;;5041725;28;20021;-76
2020/12/31 06:30:41;;;;;;;3.35;2.33;;;6.30;83.00;;;;;;5047431;28;20489;-76
2020/12/31 06:33:20;;;;;;;3.22;2.42;;;6.30;83.00;;;;;;5033023;28;20107;-75
2020/12/31 06:35:49;;;;;;;3.22;2.20;;;6.30;83.10;;;;;;5038374;28;20029;-74
2020/12/31 06:38:26;;;;;;;2.60;2.20;;;6.30;83.00;;;;;;5040072;28;20099;-75
2020/12/31 06:40:52;;;;;;;3.20;2.35;;;6.20;83.60;;;;;;5014663;28;20582;-75
2020/12/31 06:43:17;;;;;;;3.25;2.45;;;6.20;82.90;;;;;;5044645;28;20110;-74
2020/12/31 06:45:45;;;;;;;2.97;2.53;;;6.30;83.00;;;;;;5033112;28;20045;-75
2020/12/31 06:48:26;;;;;;;4.07;2.70;;;6.20;83.00;;;;;;5048137;28;20028;-75
2020/12/31 06:51:00;;;;;;;3.28;2.63;;;6.20;83.10;;;;;;5029296;28;20086;-76
2020/12/31 06:53:33;;;;;;;3.67;2.50;;;6.30;83.10;;;;;;5039299;28;20039;-75
2020/12/31 06:56:40;;;;;;;3.47;2.65;;;6.20;83.00;;;;;;5042905;28;20506;-76
2020/12/31 06:59:25;;;;;;;3.85;2.38;;;6.20;83.10;;;;;;5037539;28;20021;-75
2020/12/31 07:01:51;;;;;;;2.80;2.40;;;6.20;83.00;;;;;;5047190;28;20029;-75
2020/12/31 07:04:30;;;;;;;3.30;2.50;;;6.30;83.00;;;;;;5038716;28;20036;-75
2020/12/31 07:06:57;;;;;;;3.15;2.40;;;6.20;83.00;;;;;;5031153;28;20095;-75
2020/12/31 07:09:35;;;;;;;3.75;2.60;;;6.20;83.00;;;;;;5036020;28;20022;-75
2020/12/31 07:12:03;;;;;;;3.47;2.55;;;6.20;83.00;;;;;;5043086;28;20104;-78
2020/12/31 07:14:31;;;;;;;3.58;2.58;;;6.20;83.00;;;;;;5039356;28;20037;-76
2020/12/31 07:17:11;;;;;;;2.30;2.10;;;6.20;83.00;;;;;;5031823;28;20029;-77
2020/12/31 07:19:41;;;;;;;3.65;2.40;;;6.20;83.00;;;;;;5037228;28;20032;-76
2020/12/31 07:22:10;;;;;;;3.00;2.40;;;6.20;83.00;;;;;;5033890;28;20021;-76
2020/12/31 07:24:46;;;;;;;3.13;2.25;;;6.20;83.00;;;;;;5039822;28;20032;-75
2020/12/31 07:27:27;;;;;;;3.88;2.47;;;6.20;83.00;;;;;;5031764;28;20025;-76
2020/12/31 07:30:02;;;;;;;2.95;2.28;;;6.20;83.00;;;;;;5035456;28;20025;-76
2020/12/31 07:32:50;;;;;;;3.05;2.25;;;6.20;83.00;;;;;;5035875;28;20060;-76
2020/12/31 07:35:32;;;;;;;3.20;2.40;;;6.20;83.10;;;;;;5035003;28;20021;-76
2020/12/31 07:38:01;;;;;;;2.72;2.13;;;6.20;83.00;;;;;;5038750;28;20469;-76
2020/12/31 07:40:31;;;;;;;2.65;2.17;;;6.20;83.00;;;;;;5032895;28;20132;-77
2020/12/31 07:42:57;;;;;;;2.80;2.15;;;6.20;83.00;;;;;;5030236;28;20112;-75
2020/12/31 07:45:24;;;;;;;2.92;2.42;;;6.20;83.00;;;;;;5029048;28;20124;-78
2020/12/31 07:47:51;;;;;;;3.15;2.13;;;6.20;83.00;;;;;;5016679;28;20164;-78
2020/12/31 07:50:18;;;;;;;3.22;2.20;;;6.20;83.10;;;;;;5034617;28;20037;-75
2020/12/31 07:52:43;;;;;;;2.47;2.13;;;6.20;83.00;;;;;;5013682;28;20048;-75
2020/12/31 07:55:09;;;;;;;3.47;2.28;;;6.20;83.00;;;;;;5036625;28;20571;-75
2020/12/31 07:57:40;;;;;;;2.33;2.00;;;6.20;83.00;;;;;;5043846;28;20115;-76
2020/12/31 08:00:07;;;;;;;2.55;2.13;;;6.20;83.00;;;;;;5030437;28;20045;-77
2020/12/31 08:02:33;;;;;;;2.58;2.10;;;6.20;83.00;;;;;;5043143;28;20021;-76
2020/12/31 08:05:09;;;;;;;2.63;2.10;;;6.20;83.00;;;;;;5037964;28;20037;-75
2020/12/31 08:07:35;;;;;;;2.20;2.00;;;6.20;83.00;;;;;;5030329;28;20037;-75
2020/12/31 08:10:01;;;;;;;2.58;1.98;;;6.20;83.00;;;;;;5031779;28;20032;-76
2020/12/31 08:12:27;;;;;;;2.47;2.00;;;6.20;82.90;;;;;;5031839;28;20927;-77
2020/12/31 08:14:53;;;;;;;2.78;2.20;;;6.20;83.00;;;;;;5041562;28;20100;-76
2020/12/31 08:17:19;;;;;;;2.58;2.08;;;6.20;83.00;;;;;;5032194;28;20043;-75
2020/12/31 08:19:45;;;;;;;2.38;2.00;;;6.20;83.00;;;;;;4997311;28;20426;-76
2020/12/31 08:22:36;;;;;;;2.63;2.10;;;6.20;83.00;;;;;;5059421;28;20128;-75
2020/12/31 08:25:10;;;;;;;2.25;2.03;;;6.20;83.00;;;;;;5044707;28;20029;-75
2020/12/31 08:27:40;;;;;;;1.97;1.77;;;6.20;82.90;;;;;;5032563;28;20420;-75
2020/12/31 08:30:11;;;;;;;2.40;1.92;;;6.20;82.90;;;;;;5049991;28;20297;-77
2020/12/31 08:32:51;;;;;;;3.28;2.10;;;6.20;83.00;;;;;;5032422;28;20259;-76
2020/12/31 08:35:21;;;;;;;2.33;1.88;;;6.20;83.00;;;;;;5032334;28;20036;-76
2020/12/31 08:38:08;;;;;;;3.20;2.13;;;6.20;83.00;;;;;;5040588;28;20033;-76
2020/12/31 08:40:45;;;;;;;2.45;1.95;;;6.20;83.00;;;;;;5012656;28;20053;-76
2020/12/31 08:43:21;;;;;;;2.20;1.80;;;6.20;83.00;;;;;;5022971;28;20618;-79
2020/12/31 08:45:48;;;;;;;2.15;1.90;;;6.20;83.00;;;;;;5045473;28;20094;-75
2020/12/31 08:48:23;;;;;;;2.10;1.83;;;6.20;83.00;;;;;;5045908;28;20029;-76
2020/12/31 08:50:59;;;;;;;2.33;1.90;;;6.20;83.00;;;;;;5039104;28;20189;-75
2020/12/31 08:53:25;;;;;;;2.78;2.10;;;6.10;83.00;;;;;;5044104;28;20077;-78
2020/12/31 08:55:51;;;;;;;2.80;2.08;;;6.20;82.90;;;;;;5036431;28;20045;-76
2020/12/31 08:58:18;;;;;;;2.22;1.90;;;6.20;83.00;;;;;;5030599;28;20099;-76
2020/12/31 09:00:44;;;;;;;2.53;2.03;;;6.10;82.90;;;;;;5053078;28;20079;-76
2020/12/31 09:03:11;;;;;;;2.03;1.83;;;6.20;83.00;;;;;;5053908;28;20458;-76
2020/12/31 09:05:37;;;;;;;2.25;2.05;;;6.20;83.00;;;;;;5051847;28;20029;-76
2020/12/31 09:08:07;;;;;;;2.05;1.85;;;6.20;83.00;;;;;;5044013;28;20052;-76
2020/12/31 09:10:35;;;;;;;2.42;1.92;;;6.20;83.00;;;;;;5046078;28;20037;-76
2020/12/31 09:13:03;;;;;;;1.90;1.80;;;6.20;82.90;;;;;;5051984;28;20021;-77
2020/12/31 09:15:29;;;;;;;2.95;2.00;;;6.20;82.90;;;;;;5035256;28;20473;-77
2020/12/31 09:17:55;;;;;;;2.17;1.98;;;6.20;82.90;;;;;;5053819;28;20025;-77
2020/12/31 09:20:26;;;;;;;2.10;1.90;;;6.20;82.90;;;;;;5035558;28;20120;-77
2020/12/31 09:22:53;;;;;;;2.20;1.77;;;6.20;82.90;;;;;;5051153;28;20025;-77
2020/12/31 09:25:20;;;;;;;2.00;1.80;;;6.20;82.90;;;;;;5005075;28;20139;-77
2020/12/31 09:27:46;;;;;;;2.67;2.10;;;6.20;82.90;;;;;;5052148;28;20082;-76
2020/12/31 09:30:14;;;;;;;2.30;1.70;;;6.20;82.90;;;;;;5051956;28;20521;-76
2020/12/31 09:32:44;;;;;;;2.10;1.90;;;6.20;82.90;;;;;;5052477;28;20376;-78
2020/12/31 09:35:10;;;;;;;2.63;2.08;;;6.20;82.90;;;;;;5053195;28;20504;-76
2020/12/31 09:37:57;;;;;;;2.70;1.98;;;6.20;82.90;;;;;;5048514;28;20029;-77
2020/12/31 09:40:23;;;;;;;2.10;1.90;;;6.20;83.00;;;;;;5040931;28;20122;-76
2020/12/31 09:42:50;;;;;;;2.08;1.80;;;6.20;82.90;;;;;;5035347;28;20112;-76
2020/12/31 09:45:16;;;;;;;2.38;1.95;;;6.20;82.90;;;;;;5034728;28;20056;-77
2020/12/31 09:47:42;;;;;;;2.70;2.10;;;6.20;83.00;;;;;;5052899;28;20488;-77
2020/12/31 09:50:11;;;;;;;2.58;2.10;;;6.20;82.90;;;;;;5035131;28;20037;-77
2020/12/31 09:52:38;;;;;;;2.25;1.90;;;6.20;82.90;;;;;;5052714;28;20036;-77
2020/12/31 09:55:06;;;;;;;2.30;1.98;;;6.20;82.90;;;;;;5048869;28;20017;-77
2020/12/31 09:57:32;;;;;;;2.70;2.08;;;6.20;82.90;;;;;;5050621;28;20032;-77
2020/12/31 09:59:58;;;;;;;2.53;1.90;;;6.20;82.90;;;;;;5052942;28;20033;-77
2020/12/31 10:02:24;;;;;;;2.15;1.92;;;6.20;82.90;;;;;;5035538;28;20041;-76
2020/12/31 10:04:50;;;;;;;2.60;2.13;;;6.20;82.90;;;;;;5043984;28;20079;-76
2020/12/31 10:07:15;;;;;;;2.60;2.08;;;6.20;82.90;;;;;;5045498;28;20033;-78
2020/12/31 10:09:41;;;;;;;2.42;2.20;;;6.20;82.90;;;;;;5052367;28;20033;-77
2020/12/31 10:12:07;;;;;;;2.25;1.90;;;6.20;82.90;;;;;;5052150;28;20458;-77
2020/12/31 10:14:33;;;;;;;2.50;2.13;;;6.20;82.90;;;;;;5037916;28;20093;-77
2020/12/31 10:16:59;;;;;;;2.17;1.98;;;6.30;83.00;;;;;;5048164;28;20033;-77
2020/12/31 10:19:24;;;;;;;3.05;2.15;;;6.20;82.90;;;;;;5043318;28;20547;-77
2020/12/31 10:21:50;;;;;;;2.35;2.00;;;6.20;82.90;;;;;;5052378;28;20021;-77
2020/12/31 10:24:16;;;;;;;2.70;2.10;;;6.20;82.90;;;;;;5052483;28;20113;-77
2020/12/31 10:26:44;;;;;;;2.13;1.92;;;6.20;82.90;;;;;;5032630;28;20309;-77
2020/12/31 10:29:15;;;;;;;3.08;2.20;;;6.20;82.90;;;;;;5023527;28;20017;-76
2020/12/31 10:31:42;;;;;;;2.65;2.10;;;6.20;82.90;;;;;;5047225;28;20560;-77
2020/12/31 10:34:11;;;;;;;2.65;2.10;;;6.30;82.90;;;;;;5043862;28;20530;-77
2020/12/31 10:36:37;;;;;;;2.00;1.80;;;6.30;83.00;;;;;;5041161;28;20049;-77
2020/12/31 10:39:03;;;;;;;3.15;2.20;;;6.30;82.90;;;;;;5046814;28;20474;-78
2020/12/31 10:41:30;;;;;;;2.47;2.10;;;6.30;82.90;;;;;;5042385;28;20095;-78
2020/12/31 10:43:57;;;;;;;2.15;1.90;;;6.30;82.90;;;;;;5033492;28;20148;-76
2020/12/31 10:46:24;;;;;;;2.10;1.90;;;6.30;82.90;;;;;;5030813;28;20034;-77
2020/12/31 10:48:50;;;;;;;3.10;2.35;;;6.30;82.90;;;;;;5048285;28;20037;-77
2020/12/31 10:51:16;;;;;;;2.58;2.10;;;6.30;82.90;;;;;;5051955;28;20036;-77
2020/12/31 10:53:42;;;;;;;2.60;1.98;;;6.30;82.90;;;;;;5049906;28;20370;-76
2020/12/31 10:56:07;;;;;;;2.22;2.00;;;6.30;82.90;;;;;;5033650;28;20032;-76
2020/12/31 10:58:39;;;;;;;2.10;1.85;;;6.30;82.90;;;;;;5040182;28;20409;-77
2020/12/31 11:01:05;;;;;;;2.63;2.22;;;6.30;82.90;;;;;;5037422;28;20477;-76
2020/12/31 11:03:31;;;;;;;2.95;2.00;;;6.30;82.90;;;;;;5050176;28;20097;-76
2020/12/31 11:05:57;;;;;;;2.60;2.20;;;6.30;82.80;;;;;;5050244;28;20021;-77
2020/12/31 11:08:22;;;;;;;3.05;2.33;;;6.40;82.90;;;;;;5017447;28;20029;-78
2020/12/31 11:10:48;;;;;;;2.67;2.20;;;6.40;82.90;;;;;;5040138;28;20052;-78
2020/12/31 11:13:15;;;;;;;2.65;2.20;;;6.40;82.90;;;;;;5008751;28;20359;-76
2020/12/31 11:15:41;;;;;;;2.40;1.90;;;6.40;82.90;;;;;;5026945;28;20026;-79
2020/12/31 11:18:07;;;;;;;2.92;2.13;;;6.40;82.90;;;;;;5033561;28;20025;-78
2020/12/31 11:20:33;;;;;;;2.88;2.13;;;6.40;82.80;;;;;;5029545;28;20033;-78
2020/12/31 11:22:58;;;;;;;2.65;1.90;;;6.40;82.80;;;;;;5028529;28;20032;-77
2020/12/31 11:25:24;;;;;;;2.80;2.10;;;6.40;82.80;;;;;;5024011;28;20021;-76
2020/12/31 11:27:50;;;;;;;2.20;2.00;;;6.40;82.80;;;;;;5026168;28;20706;-78
2020/12/31 11:30:15;;;;;;;2.17;1.95;;;6.40;82.80;;;;;;5030310;28;20051;-76
2020/12/31 11:32:41;;;;;;;3.33;2.13;;;6.40;82.80;;;;;;5046983;28;20029;-76
2020/12/31 11:35:07;;;;;;;2.63;2.10;;;6.50;82.90;;;;;;5041283;28;20041;-78
2020/12/31 11:37:34;;;;;;;3.03;2.28;;;6.40;82.80;;;;;;5029827;28;20091;-76
2020/12/31 11:40:01;;;;;;;2.33;2.10;;;6.50;82.90;;;;;;5031392;28;20108;-78
2020/12/31 11:42:38;;;;;;;2.55;2.08;;;6.50;82.90;;;;;;5048884;28;20664;-77
2020/12/31 11:45:05;;;;;;;2.53;2.08;;;6.50;82.90;;;;;;5031152;28;20056;-76
2020/12/31 11:47:31;;;;;;;2.55;2.20;;;6.50;82.80;;;;;;5041676;28;20052;-76
2020/12/31 11:49:57;;;;;;;2.25;2.00;;;6.50;82.80;;;;;;5039316;28;20473;-79
2020/12/31 11:52:22;;;;;;;3.15;2.00;;;6.60;82.90;;;;;;5044707;28;20123;-79
2020/12/31 11:54:48;;;;;;;2.38;2.10;;;6.50;82.80;;;;;;5026270;28;20025;-76
2020/12/31 11:57:14;;;;;;;2.75;2.30;;;6.60;82.80;;;;;;5042102;28;20032;-77
2020/12/31 11:59:40;;;;;;;3.72;2.53;;;6.60;82.80;;;;;;5031450;28;20113;-77
2020/12/31 12:02:08;;;;;;;2.97;2.30;;;6.60;82.90;;;;;;5028793;28;20037;-78
2020/12/31 12:04:34;;;;;;;3.20;2.47;;;6.60;82.80;;;;;;5045608;28;20032;-76
2020/12/31 12:07:00;;;;;;;2.63;2.10;;;6.60;82.80;;;;;;5030438;28;20025;-76
2020/12/31 12:09:26;;;;;;;3.47;2.55;;;6.60;82.80;;;;;;5032081;28;20044;-76
2020/12/31 12:11:52;;;;;;;2.63;2.42;;;6.70;82.80;;;;;;5046506;28;20094;-76
2020/12/31 12:14:17;;;;;;;3.03;2.40;;;6.70;82.80;;;;;;5036961;28;20078;-76
2020/12/31 12:16:50;;;;;;;3.05;2.28;;;6.70;82.80;;;;;;5019548;28;20625;-78
2020/12/31 12:19:17;;;;;;;3.35;2.60;;;6.70;82.80;;;;;;5046981;28;20048;-76
2020/12/31 12:21:43;;;;;;;3.95;2.78;;;6.70;82.80;;;;;;5050713;28;20049;-75
2020/12/31 12:24:09;;;;;;;3.80;2.70;;;6.80;82.80;;;;;;5041312;28;20030;-76
2020/12/31 12:26:39;;;;;;;3.35;2.20;;;6.70;82.80;;;;;;5030331;28;20047;-76
2020/12/31 12:29:06;;;;;;;3.42;2.67;;;6.80;82.90;;;;;;5047492;28;20052;-76
2020/12/31 12:31:33;;;;;;;3.97;2.63;;;6.80;82.80;;;;;;5034223;28;20029;-78
2020/12/31 12:33:59;;;;;;;3.17;2.63;;;6.80;82.80;;;;;;5032151;28;20021;-76
2020/12/31 12:36:25;;;;;;;3.53;2.60;;;6.80;82.80;;;;;;5043971;28;20362;-77
2020/12/31 12:38:51;;;;;;;3.72;2.65;;;6.80;82.80;;;;;;5025695;28;20406;-76
2020/12/31 12:41:17;;;;;;;3.08;2.60;;;6.80;82.80;;;;;;5051250;28;20067;-76
2020/12/31 12:43:42;;;;;;;2.97;2.40;;;6.90;82.80;;;;;;5050008;28;20033;-76
2020/12/31 12:46:11;;;;;;;3.30;2.53;;;6.90;82.80;;;;;;5034387;28;20080;-77
2020/12/31 12:48:37;;;;;;;3.10;2.33;;;6.90;82.80;;;;;;5050082;28;20033;-76
2020/12/31 12:51:03;;;;;;;3.67;2.60;;;6.90;82.70;;;;;;5052524;28;20116;-77
2020/12/31 12:53:28;;;;;;;5.10;2.60;;;6.90;82.70;;;;;;5019298;28;20367;-79
2020/12/31 12:55:54;;;;;;;4.18;2.55;;;6.90;82.70;;;;;;5049044;28;20465;-76
2020/12/31 12:58:20;;;;;;;4.00;2.75;;;6.90;82.70;;;;;;5052200;28;20041;-77
2020/12/31 13:00:46;;;;;;;3.50;2.58;;;6.90;82.70;;;;;;5033139;28;20039;-76
2020/12/31 13:03:11;;;;;;;3.70;2.47;;;6.90;82.60;;;;;;5009661;28;20022;-77
2020/12/31 13:05:37;;;;;;;3.35;2.75;;;7.00;82.70;;;;;;5042547;28;20033;-76